Time;durP1;ratioP1;P1;durP2;ratioP2;P2;SDS_P1;SDS_P2;PMS_P1;PMS_P2;Temp;Humidity;BMP_temperature;BMP_pressure;BME280_temperature;BME280_humidity;BME280_pressure;Samples;Min_cycle;Max_cycle;Signal;HPM_P1;HPM_P2
2021/11/17 02:28:09;;;;;;;13.73;7.75;;;;;;;5.58;100.00;101015.13;5181941;28;20065;-77
2021/11/17 02:30:55;;;;;;;14.93;7.78;;;;;;;5.50;100.00;101016.91;5171544;28;20026;-77
2021/11/17 02:33:44;;;;;;;;;;;;;;;5.53;100.00;101009.97;5170656;28;20030;-77
2021/11/17 02:36:33;;;;;;;16.85;7.43;;;;;;;5.50;100.00;101012.59;5179919;28;20303;-77
2021/11/17 02:39:15;;;;;;;16.15;8.43;;;;;;;5.44;100.00;101011.78;5173602;28;20023;-78
2021/11/17 02:41:57;;;;;;;14.63;7.65;;;;;;;5.54;100.00;101010.84;5167464;28;20027;-77
2021/11/17 02:44:57;;;;;;;18.67;8.73;;;;;;;5.52;100.00;101015.16;5169077;28;20223;-78
2021/11/17 02:47:39;;;;;;;17.80;8.68;;;;;;;5.55;100.00;101009.97;5167188;28;20054;-77
2021/11/17 02:50:12;;;;;;;15.38;7.78;;;;;;;5.55;100.00;101008.22;5173366;28;20039;-78
2021/11/17 02:52:58;;;;;;;14.68;8.13;;;;;;;5.53;100.00;101006.50;5194969;28;20030;-77
2021/11/17 02:55:46;;;;;;;16.90;8.27;;;;;;;5.42;100.00;101001.41;5171809;28;20057;-77
2021/11/17 02:58:29;;;;;;;14.18;7.78;;;;;;;5.49;100.00;100999.63;5172791;28;20041;-78
2021/11/17 03:01:11;;;;;;;16.13;8.10;;;;;;;5.52;100.00;100999.59;5174112;28;20024;-77
2021/11/17 03:04:06;;;;;;;14.60;7.90;;;;;;;5.55;100.00;100989.22;5180125;28;20541;-77
2021/11/17 03:06:55;;;;;;;17.17;8.15;;;;;;;5.45;100.00;100988.44;5181322;28;20038;-78
2021/11/17 03:10:06;;;;;;;16.33;7.97;;;;;;;5.51;100.00;100992.69;5168619;28;20404;-78
2021/11/17 03:12:49;;;;;;;17.52;8.27;;;;;;;5.54;100.00;100993.53;5176467;28;20443;-78
2021/11/17 03:15:47;;;;;;;15.65;7.93;;;;;;;5.54;100.00;100992.69;5161270;28;20062;-78
2021/11/17 03:18:40;;;;;;;17.58;8.25;;;;;;;5.55;100.00;100992.66;5167118;28;20121;-78
2021/11/17 03:21:22;;;;;;;18.15;8.10;;;;;;;5.51;100.00;100988.38;5183812;28;20037;-78
2021/11/17 03:24:09;;;;;;;15.43;7.57;;;;;;;5.51;100.00;100978.00;5176311;28;20030;-78
2021/11/17 03:27:00;;;;;;;15.70;7.93;;;;;;;5.68;100.00;100985.63;5178462;28;20038;-78
2021/11/17 03:29:56;;;;;;;13.82;7.75;;;;;;;5.55;100.00;100991.81;5179885;28;20052;-78
2021/11/17 03:32:58;;;;;;;13.73;7.53;;;;;;;5.48;100.00;100987.53;5149371;28;20096;-78
2021/11/17 03:35:59;;;;;;;14.48;7.30;;;;;;;5.53;100.00;100990.94;5181316;28;20160;-78
2021/11/17 03:38:35;;;;;;;14.85;7.35;;;;;;;5.50;100.00;100988.38;5167835;28;20103;-78
2021/11/17 03:41:16;;;;;;;17.13;7.97;;;;;;;5.49;100.00;100991.84;5174600;28;20026;-78
2021/11/17 03:43:53;;;;;;;15.93;7.18;;;;;;;5.44;100.00;100989.28;5176581;28;20030;-78
2021/11/17 03:46:52;;;;;;;16.77;7.47;;;;;;;5.51;100.00;100983.19;5182317;28;20030;-78
2021/11/17 03:49:35;;;;;;;14.80;7.70;;;;;;;5.54;100.00;100984.91;5176969;28;20468;-78
2021/11/17 03:52:21;;;;;;;13.77;7.30;;;;;;;5.53;100.00;100988.34;5178705;28;20053;-78
2021/11/17 03:55:18;;;;;;;14.43;7.35;;;;;;;5.58;100.00;100989.19;5179496;28;20464;-78
2021/11/17 03:58:23;;;;;;;16.05;7.82;;;;;;;5.53;100.00;100985.75;5174776;28;20689;-78
2021/11/17 04:01:04;;;;;;;14.70;8.00;;;;;;;5.58;100.00;100989.19;5181728;28;20022;-78
2021/11/17 04:03:58;;;;;;;14.27;7.65;;;;;;;5.64;100.00;100990.00;5169123;28;20544;-78
2021/11/17 04:06:44;;;;;;;14.10;7.93;;;;;;;5.62;100.00;100988.28;5169612;28;20064;-78
2021/11/17 04:09:33;;;;;;;;;;;;;;;5.63;100.00;100984.81;5174080;28;20045;-78
2021/11/17 04:12:32;;;;;;;13.90;6.55;;;;;;;5.63;100.00;100997.78;5171735;28;19918;-78
2021/11/17 04:15:23;;;;;;;14.63;7.10;;;;;;;5.66;100.00;100990.84;5182844;28;20034;-78
2021/11/17 04:18:08;;;;;;;15.43;7.25;;;;;;;5.57;100.00;100988.31;5182583;28;20030;-78
2021/11/17 04:20:56;;;;;;;16.50;7.55;;;;;;;5.55;100.00;100991.81;5174467;28;20027;-78
2021/11/17 04:24:04;;;;;;;15.63;7.30;;;;;;;5.73;100.00;100989.06;5173692;28;20034;-78
2021/11/17 04:26:49;;;;;;;13.95;7.32;;;;;;;5.49;100.00;100984.94;5171651;28;20101;-78
2021/11/17 04:29:38;;;;;;;14.90;7.38;;;;;;;5.50;100.00;100986.66;5178766;28;20041;-78
2021/11/17 04:32:39;;;;;;;16.95;7.63;;;;;;;5.47;100.00;100985.81;5172298;28;20110;-77
2021/11/17 04:35:19;;;;;;;15.55;7.70;;;;;;;5.49;100.00;100986.66;5171905;28;20579;-78
2021/11/17 04:37:58;;;;;;;17.27;7.95;;;;;;;5.52;100.00;100984.03;5175817;28;20038;-78
2021/11/17 04:40:49;;;;;;;14.95;7.60;;;;;;;5.56;100.00;100986.59;5176239;28;20092;-78
2021/11/17 04:43:32;;;;;;;13.48;6.72;;;;;;;5.54;100.00;100993.53;5176882;28;20079;-78
2021/11/17 04:46:08;;;;;;;17.63;7.32;;;;;;;5.55;100.00;100992.66;5171048;28;20499;-78
2021/11/17 04:48:44;;;;;;;16.80;7.78;;;;;;;5.51;100.00;100990.09;5173856;28;20048;-78
2021/11/17 04:51:17;;;;;;;14.38;7.75;;;;;;;5.45;100.00;100987.56;5181441;28;20027;-79
2021/11/17 04:53:54;;;;;;;13.93;7.13;;;;;;;5.52;100.00;100981.44;5172713;28;20042;-79
2021/11/17 04:56:33;;;;;;;15.10;8.00;;;;;;;5.62;100.00;100983.09;5159471;28;20049;-78
2021/11/17 04:59:28;;;;;;;17.13;7.78;;;;;;;5.64;100.00;100974.44;5162660;28;20058;-78
2021/11/17 05:02:05;;;;;;;13.00;6.93;;;;;;;5.55;100.00;100984.88;5172117;28;20022;-78
2021/11/17 05:04:46;;;;;;;17.40;7.78;;;;;;;5.66;100.00;100977.88;5169384;28;20142;-78
2021/11/17 05:07:42;;;;;;;13.73;7.20;;;;;;;5.65;100.00;100983.06;5178899;28;20646;-78
2021/11/17 05:10:32;;;;;;;16.08;7.60;;;;;;;5.68;100.00;100985.63;5172048;28;20507;-79
2021/11/17 05:13:14;;;;;;;14.70;6.97;;;;;;;5.76;100.00;100983.84;5168249;28;20029;-79
2021/11/17 05:15:53;;;;;;;14.07;7.43;;;;;;;5.75;100.00;100987.31;5170607;28;20022;-79
2021/11/17 05:18:26;;;;;;;13.13;7.07;;;;;;;5.87;100.00;100992.38;5168224;28;20069;-79
2021/11/17 05:21:18;;;;;;;14.98;7.90;;;;;;;5.99;100.00;100993.13;5169899;28;20025;-79
2021/11/17 05:24:10;;;;;;;16.80;8.10;;;;;;;6.07;100.00;100993.91;5169083;28;20080;-79
2021/11/17 05:26:46;;;;;;;15.40;7.38;;;;;;;5.87;100.00;101000.16;5170450;28;20101;-79
2021/11/17 05:29:50;;;;;;;16.75;7.97;;;;;;;5.72;100.00;101001.16;5171922;28;20069;-79
2021/11/17 05:32:32;;;;;;;15.18;7.40;;;;;;;5.78;100.00;100997.63;5171803;28;20023;-79
2021/11/17 05:35:11;;;;;;;13.95;7.10;;;;;;;5.84;100.00;101002.78;5169772;28;20029;-79
2021/11/17 05:38:09;;;;;;;16.75;8.00;;;;;;;5.86;100.00;101001.03;5187960;28;20339;-79
2021/11/17 05:41:08;;;;;;;13.25;6.68;;;;;;;5.89;100.00;101001.88;5170201;28;20034;-79
2021/11/17 05:43:59;;;;;;;17.38;7.90;;;;;;;5.89;100.00;100995.84;5168051;28;20132;-78
2021/11/17 05:46:39;;;;;;;15.02;7.25;;;;;;;5.91;100.00;100991.50;5167635;28;20050;-78
2021/11/17 05:49:12;;;;;;;17.00;7.43;;;;;;;5.93;100.00;100988.00;5172125;28;20542;-79
2021/11/17 05:52:06;;;;;;;15.73;7.53;;;;;;;5.91;100.00;100994.09;5187887;28;20106;-79
2021/11/17 05:54:46;;;;;;;15.85;7.25;;;;;;;5.84;100.00;101001.06;5171533;28;20026;-79
2021/11/17 05:57:41;;;;;;;17.15;8.35;;;;;;;5.84;100.00;101002.78;5175416;28;20489;-79
2021/11/17 06:00:23;;;;;;;15.90;7.03;;;;;;;5.79;100.00;100999.41;5171090;28;20026;-79
2021/11/17 06:03:13;;;;;;;16.95;8.30;;;;;;;5.73;100.00;100996.84;5185117;28;20026;-79
2021/11/17 06:05:43;;;;;;;16.60;8.02;;;;;;;5.65;100.00;101001.22;5185023;28;20026;-79
2021/11/17 06:08:13;;;;;;;21.00;8.90;;;;;;;5.63;100.00;101000.38;5173279;28;20048;-79
2021/11/17 06:10:56;;;;;;;16.37;7.97;;;;;;;5.70;100.00;100999.44;5173076;28;20554;-78
2021/11/17 06:13:27;;;;;;;15.77;6.97;;;;;;;5.81;100.00;101001.09;5168910;28;20537;-79
2021/11/17 06:15:58;;;;;;;19.35;7.82;;;;;;;5.85;100.00;101002.78;5172042;28;20104;-79
2021/11/17 06:18:32;;;;;;;16.20;7.55;;;;;;;5.85;100.00;101002.78;5170384;28;20302;-78
2021/11/17 06:21:06;;;;;;;14.52;7.30;;;;;;;5.85;100.00;101001.91;5168639;28;20539;-79
2021/11/17 06:23:59;;;;;;;17.42;8.40;;;;;;;5.79;100.00;101005.44;5170622;28;20096;-80
2021/11/17 06:26:36;;;;;;;14.95;7.70;;;;;;;5.80;100.00;101006.28;5174349;28;20084;-78
2021/11/17 06:29:20;;;;;;;16.67;7.43;;;;;;;5.84;100.00;101006.25;5171519;28;20253;-79
2021/11/17 06:31:53;;;;;;;16.60;8.30;;;;;;;5.83;100.00;101012.31;5169525;28;20541;-78
2021/11/17 06:34:41;;;;;;;14.52;7.53;;;;;;;5.79;100.00;101012.34;5168789;28;20061;-78
2021/11/17 06:37:19;;;;;;;16.40;8.30;;;;;;;5.84;100.00;101021.81;5169720;28;20029;-80
2021/11/17 06:39:52;;;;;;;18.42;8.68;;;;;;;5.97;100.00;101026.03;5188068;28;20247;-79
2021/11/17 06:42:27;;;;;;;15.77;8.35;;;;;;;5.89;100.00;101021.78;5172626;28;20518;-79
2021/11/17 06:44:58;;;;;;;22.33;10.10;;;;;;;5.85;100.00;101022.66;5190068;28;20492;-79
2021/11/17 06:47:28;;;;;;;19.27;9.45;;;;;;;5.89;100.00;101030.41;5186758;28;20030;-78
2021/11/17 06:49:59;;;;;;;19.10;9.57;;;;;;;5.77;100.00;101029.63;5171835;28;20368;-79
2021/11/17 06:52:29;;;;;;;24.92;10.77;;;;;;;5.86;100.00;101016.59;5173035;28;20044;-78
2021/11/17 06:54:59;;;;;;;18.85;9.40;;;;;;;5.81;100.00;101018.38;5175114;28;20197;-79
2021/11/17 06:57:29;;;;;;;22.15;10.73;;;;;;;5.83;100.00;101019.22;5179163;28;20033;-79
2021/11/17 07:00:01;;;;;;;20.13;10.00;;;;;;;5.84;100.00;101018.34;5176010;28;20040;-78
2021/11/17 07:02:31;;;;;;;21.45;10.15;;;;;;;5.83;100.00;101016.63;5174824;28;20034;-78
2021/11/17 07:05:03;;;;;;;19.33;10.27;;;;;;;5.76;100.00;101015.78;5192866;28;20073;-78
2021/11/17 07:07:33;;;;;;;22.20;10.73;;;;;;;5.74;100.00;101011.50;5177924;28;20619;-78
2021/11/17 07:10:06;;;;;;;20.88;10.32;;;;;;;5.77;100.00;101014.06;5177116;28;20022;-80
2021/11/17 07:12:38;;;;;;;22.30;10.48;;;;;;;5.78;100.00;101016.66;5175825;28;20112;-79
2021/11/17 07:15:10;;;;;;;25.05;10.63;;;;;;;5.75;100.00;101013.22;5177197;28;20032;-79
2021/11/17 07:17:41;;;;;;;20.13;10.45;;;;;;;5.77;100.00;101016.66;5191400;28;20030;-79
2021/11/17 07:20:12;;;;;;;24.20;11.27;;;;;;;5.76;100.00;101012.34;5177001;28;20411;-78
2021/11/17 07:22:44;;;;;;;22.55;11.20;;;;;;;5.79;100.00;101018.41;5177088;28;20084;-79
2021/11/17 07:25:19;;;;;;;23.90;11.35;;;;;;;5.71;100.00;101024.50;5177142;28;20434;-80
2021/11/17 07:27:55;;;;;;;22.60;10.48;;;;;;;5.69;100.00;101023.63;5178111;28;20076;-79
2021/11/17 07:30:30;;;;;;;22.67;10.43;;;;;;;5.81;100.00;101023.56;5192677;28;20037;-79
2021/11/17 07:33:04;;;;;;;21.23;9.53;;;;;;;5.85;100.00;101030.44;5183600;28;20180;-79
2021/11/17 07:35:38;;;;;;;18.50;10.02;;;;;;;5.78;100.00;101020.97;5179161;28;20041;-79
2021/11/17 07:38:12;;;;;;;19.13;9.40;;;;;;;5.87;100.00;101018.31;5176399;28;20148;-79
2021/11/17 07:40:44;;;;;;;18.55;9.80;;;;;;;5.90;100.00;101013.13;5175063;28;20026;-78
2021/11/17 07:43:17;;;;;;;18.52;9.18;;;;;;;5.93;100.00;101018.28;5175861;28;20033;-78
2021/11/17 07:45:47;;;;;;;20.30;10.18;;;;;;;5.84;100.00;101021.81;5175611;28;20034;-79
2021/11/17 07:48:20;;;;;;;18.65;9.88;;;;;;;5.81;100.00;101024.44;5175286;28;21301;-79
2021/11/17 07:50:51;;;;;;;18.90;9.75;;;;;;;5.90;100.00;101026.09;5176313;28;20187;-79
2021/11/17 07:53:23;;;;;;;16.92;8.27;;;;;;;6.01;100.00;101026.81;5174349;28;20153;-79
2021/11/17 07:55:57;;;;;;;18.05;9.00;;;;;;;6.11;100.00;101028.47;5175355;28;20060;-80
2021/11/17 07:58:34;;;;;;;16.40;8.50;;;;;;;6.05;100.00;101034.56;5174343;28;20488;-78
2021/11/17 08:01:05;;;;;;;15.45;8.00;;;;;;;6.08;100.00;101029.34;5176916;28;20133;-79
2021/11/17 08:03:38;;;;;;;19.23;9.27;;;;;;;6.05;100.00;101023.34;5168533;28;20109;-79
2021/11/17 08:06:12;;;;;;;17.92;8.93;;;;;;;6.15;100.00;101022.38;5177945;28;20038;-78
2021/11/17 08:08:45;;;;;;;17.52;8.32;;;;;;;6.17;100.00;101024.06;5190614;28;20034;-79
2021/11/17 08:11:16;;;;;;;16.15;7.95;;;;;;;6.27;100.00;101019.66;5175440;28;20049;-79
2021/11/17 08:13:46;;;;;;;16.77;8.77;;;;;;;6.27;100.00;101011.84;5191242;28;20439;-79
2021/11/17 08:16:17;;;;;;;14.05;7.68;;;;;;;6.27;100.00;101004.91;5173941;28;20026;-79
2021/11/17 08:18:47;;;;;;;15.55;8.25;;;;;;;6.45;100.00;101014.25;5175112;28;20519;-79
2021/11/17 08:21:18;;;;;;;14.70;7.63;;;;;;;6.49;100.00;101013.31;5174989;28;20032;-78
2021/11/17 08:23:48;;;;;;;15.23;8.13;;;;;;;6.57;100.00;101007.16;5176015;28;20065;-80
2021/11/17 08:26:22;;;;;;;17.98;8.05;;;;;;;6.88;100.00;101015.41;5174181;28;20042;-79
2021/11/17 08:28:53;;;;;;;13.68;7.70;;;;;;;6.95;100.00;101010.09;5171990;28;20084;-79
2021/11/17 08:31:26;;;;;;;13.60;7.15;;;;;;;7.09;100.00;101018.56;5194545;28;20057;-79
2021/11/17 08:33:56;;;;;;;17.00;8.25;;;;;;;7.09;100.00;101009.91;5168442;28;20021;-79
2021/11/17 08:36:27;;;;;;;15.52;7.82;;;;;;;7.22;100.00;101007.94;5176169;28;20109;-78
2021/11/17 08:38:57;;;;;;;16.25;8.02;;;;;;;7.09;100.00;101007.31;5170466;28;20030;-78
2021/11/17 08:41:28;;;;;;;12.63;7.20;;;;;;;7.17;100.00;101008.06;5174122;28;20091;-79
2021/11/17 08:43:58;;;;;;;13.73;6.55;;;;;;;7.19;100.00;101011.47;5191357;28;20479;-80
2021/11/17 08:46:33;;;;;;;15.23;8.18;;;;;;;7.33;100.00;101000.84;5169320;28;20061;-79
2021/11/17 08:49:03;;;;;;;14.87;7.27;;;;;;;7.19;100.00;101001.09;5175972;28;20454;-79
2021/11/17 08:51:34;;;;;;;14.23;7.47;;;;;;;7.26;100.00;100997.53;5172226;28;20369;-79
2021/11/17 08:54:05;;;;;;;13.57;7.07;;;;;;;7.37;100.00;101001.69;5192630;28;20033;-80
2021/11/17 08:56:36;;;;;;;15.57;7.40;;;;;;;7.55;100.00;100984.00;5175513;28;20109;-80
2021/11/17 08:59:07;;;;;;;16.48;8.40;;;;;;;7.48;100.00;100976.34;5164569;28;20109;-79
2021/11/17 09:01:37;;;;;;;15.88;7.93;;;;;;;7.65;100.00;100971.72;5167096;28;20536;-79
2021/11/17 09:04:07;;;;;;;16.25;8.25;;;;;;;7.17;100.00;100964.75;5171098;28;20382;-78
2021/11/17 09:06:38;;;;;;;13.20;7.57;;;;;;;7.29;100.00;100961.94;5173429;28;20088;-79
2021/11/17 09:09:09;;;;;;;16.65;7.43;;;;;;;7.68;100.00;100951.72;5173673;28;20134;-79
2021/11/17 09:11:40;;;;;;;13.10;7.25;;;;;;;7.68;100.00;100962.13;5174755;28;20030;-79
2021/11/17 09:14:11;;;;;;;16.00;7.28;;;;;;;7.67;100.00;100962.16;5168622;28;20022;-79
2021/11/17 09:16:41;;;;;;;14.25;6.95;;;;;;;7.77;100.00;100961.97;5170252;28;20404;-78
2021/11/17 09:19:12;;;;;;;12.88;6.90;;;;;;;7.77;100.00;100972.38;5163271;28;20576;-80
2021/11/17 09:21:45;;;;;;;12.93;6.80;;;;;;;7.88;100.00;100967.81;5170551;28;20030;-79
2021/11/17 09:24:17;;;;;;;11.95;7.00;;;;;;;7.88;100.00;100974.78;5167619;28;20022;-78
2021/11/17 09:26:51;;;;;;;14.85;6.47;;;;;;;8.01;100.00;100973.66;5169716;28;20377;-79
2021/11/17 09:29:22;;;;;;;10.68;6.22;;;;;;;7.88;100.00;100990.38;5167943;28;20029;-79
2021/11/17 09:31:53;;;;;;;12.73;6.18;;;;;;;7.89;100.00;100986.91;5166703;28;20025;-79
2021/11/17 09:34:23;;;;;;;12.40;6.38;;;;;;;7.94;100.00;100980.72;5170397;28;20034;-78
2021/11/17 09:36:53;;;;;;;10.20;6.03;;;;;;;8.19;100.00;101000.22;5170859;28;20026;-80
2021/11/17 09:39:24;;;;;;;10.15;5.65;;;;;;;8.14;100.00;101003.75;5189982;28;20022;-78
2021/11/17 09:41:54;;;;;;;9.38;5.30;;;;;;;7.95;100.00;101011.06;5171790;28;20028;-79
2021/11/17 09:44:30;;;;;;;11.43;6.15;;;;;;;7.64;100.00;101009.88;5174431;28;20025;-78
2021/11/17 09:47:02;;;;;;;11.30;5.70;;;;;;;7.62;100.00;101014.25;5167993;28;20033;-79
2021/11/17 09:49:35;;;;;;;12.75;6.50;;;;;;;7.69;100.00;101015.84;5174679;28;20061;-78
2021/11/17 09:52:13;;;;;;;11.90;5.88;;;;;;;7.78;100.00;101017.44;5188595;28;20057;-78
2021/11/17 09:54:46;;;;;;;11.20;6.32;;;;;;;7.90;100.00;101017.25;5171820;28;20112;-78
2021/11/17 09:57:22;;;;;;;9.27;5.57;;;;;;;7.83;100.00;101013.88;5173107;28;20034;-78
2021/11/17 10:00:09;;;;;;;9.70;5.60;;;;;;;8.07;100.00;101016.03;5167904;28;20025;-79
2021/11/17 10:03:09;;;;;;;9.38;5.68;;;;;;;8.09;100.00;101003.88;5186404;28;20117;-79
2021/11/17 10:09:22;;;;;;;10.27;5.28;;;;;;;8.60;100.00;101004.63;5176291;28;20042;-79
2021/11/17 10:14:35;;;;;;;8.75;5.13;;;;;;;8.61;99.84;101007.19;5175348;28;20429;-79
2021/11/17 10:17:29;;;;;;;9.70;5.15;;;;;;;8.76;99.04;101011.22;5171699;28;20499;-79
2021/11/17 10:20:14;;;;;;;8.75;5.07;;;;;;;8.35;100.00;101032.88;5172086;28;20316;-79
2021/11/17 10:23:15;;;;;;;9.23;5.15;;;;;;;8.53;99.54;101027.31;5172335;28;20216;-78
2021/11/17 10:26:11;;;;;;;8.45;4.93;;;;;;;8.69;100.00;101033.09;5162054;28;20042;-79
2021/11/17 10:29:02;;;;;;;7.80;4.90;;;;;;;8.38;100.00;101029.38;5166860;28;20223;-79
2021/11/17 10:31:55;;;;;;;10.68;5.40;;;;;;;8.31;100.00;101033.84;5179172;28;20467;-79
2021/11/17 10:34:32;;;;;;;10.65;5.75;;;;;;;8.40;100.00;101036.25;5181518;28;20092;-79
2021/11/17 10:37:22;;;;;;;9.27;5.32;;;;;;;8.28;100.00;101040.84;5187354;28;20041;-78
2021/11/17 10:39:52;;;;;;;9.40;5.40;;;;;;;7.97;100.00;101032.72;5173264;28;20040;-79
2021/11/17 10:42:23;;;;;;;9.93;5.07;;;;;;;8.16;100.00;101036.69;5168425;28;20116;-79
2021/11/17 10:44:57;;;;;;;10.07;5.37;;;;;;;8.27;100.00;101023.50;5173172;28;20035;-78
2021/11/17 10:47:27;;;;;;;8.88;4.82;;;;;;;8.23;100.00;101024.47;5177150;28;20607;-79
2021/11/17 10:50:29;;;;;;;8.77;5.33;;;;;;;8.15;100.00;101015.88;5177467;28;20180;-79
2021/11/17 10:53:05;;;;;;;8.27;4.78;;;;;;;8.29;100.00;101013.91;5173349;28;20277;-79
2021/11/17 10:55:48;;;;;;;8.50;4.97;;;;;;;8.19;100.00;101007.19;5169840;28;20330;-79
2021/11/17 10:58:22;;;;;;;8.32;4.85;;;;;;;8.27;100.00;101008.75;5175125;28;20029;-79
2021/11/17 11:01:16;;;;;;;6.28;4.32;;;;;;;8.40;100.00;101007.59;5172699;28;20018;-79
2021/11/17 11:03:58;;;;;;;7.90;4.28;;;;;;;8.53;100.00;100998.66;5171573;28;21290;-79
2021/11/17 11:06:38;;;;;;;8.23;4.57;;;;;;;8.43;100.00;100986.75;5171749;28;20201;-80
2021/11/17 11:09:16;;;;;;;8.85;4.55;;;;;;;8.47;100.00;100983.19;5208136;22;20719;-76
2021/11/17 11:11:50;;;;;;;8.43;4.50;;;;;;;8.35;100.00;100975.59;5214402;28;20441;-77
2021/11/17 11:14:30;;;;;;;8.23;4.15;;;;;;;8.37;100.00;100971.22;5221744;28;20025;-77
2021/11/17 11:17:19;;;;;;;8.18;5.45;;;;;;;8.27;100.00;100985.31;5216433;28;20029;-77
2021/11/17 11:19:51;;;;;;;7.22;4.25;;;;;;;8.28;100.00;100996.59;5217374;28;20026;-78
2021/11/17 11:22:23;;;;;;;9.00;5.13;;;;;;;8.10;100.00;100989.09;5219458;28;20033;-77
2021/11/17 11:24:58;;;;;;;8.02;4.78;;;;;;;8.24;100.00;100990.56;5223360;28;20080;-77
2021/11/17 11:27:31;;;;;;;7.83;4.53;;;;;;;8.23;100.00;100994.06;5217072;28;20029;-77
2021/11/17 11:30:01;;;;;;;10.27;4.25;;;;;;;8.16;100.00;100992.44;5213890;28;20075;-77
2021/11/17 11:32:32;;;;;;;9.70;4.53;;;;;;;8.24;100.00;100990.56;5217308;28;20034;-79
2021/11/17 11:35:05;;;;;;;6.30;4.00;;;;;;;8.30;100.00;100980.06;5208015;28;20272;-77
2021/11/17 11:37:35;;;;;;;7.55;3.97;;;;;;;8.23;100.00;100983.66;5213364;28;20287;-77
2021/11/17 11:40:05;;;;;;;9.90;4.20;;;;;;;8.17;100.00;100978.53;5204682;28;20394;-78
2021/11/17 11:42:58;;;;;;;8.47;4.20;;;;;;;8.13;100.00;100966.47;5218171;28;20305;-77
2021/11/17 11:45:29;;;;;;;6.88;4.00;;;;;;;8.15;100.00;100966.44;5203373;28;20280;-75
2021/11/17 11:48:24;;;;;;;7.72;4.15;;;;;;;8.28;100.00;100970.56;5209417;28;20059;-77
2021/11/17 11:50:59;;;;;;;7.38;4.22;;;;;;;8.33;100.00;100969.56;5213928;28;20036;-76
2021/11/17 11:53:57;;;;;;;8.98;4.93;;;;;;;8.29;100.00;100970.53;5206651;28;20411;-75
2021/11/17 11:56:55;;;;;;;12.50;5.43;;;;;;;8.06;100.00;100972.66;5210475;28;20032;-77
2021/11/17 11:59:28;;;;;;;9.85;4.85;;;;;;;7.98;100.00;100971.09;5181054;28;20040;-76
2021/11/17 12:02:23;;;;;;;10.20;4.55;;;;;;;7.97;100.00;100966.78;5202170;28;20056;-77
2021/11/17 12:05:00;;;;;;;8.20;4.43;;;;;;;7.71;100.00;100967.25;5201318;28;20028;-77
2021/11/17 12:07:42;;;;;;;7.80;4.68;;;;;;;7.73;100.00;100964.66;5200297;28;20032;-76
2021/11/17 12:10:30;;;;;;;9.15;4.57;;;;;;;7.92;100.00;100966.03;5203457;28;20046;-77
2021/11/17 12:13:38;;;;;;;7.13;4.15;;;;;;;7.93;100.00;100960.81;5202608;28;20068;-76
2021/11/17 12:16:37;;;;;;;8.32;4.72;;;;;;;7.92;100.00;100956.47;5194913;28;20041;-76
2021/11/17 12:19:25;;;;;;;9.25;4.35;;;;;;;8.03;100.00;100958.88;5204643;28;20048;-77
2021/11/17 12:22:35;;;;;;;6.82;4.10;;;;;;;8.01;100.00;100963.25;5203444;28;20040;-77
2021/11/17 12:25:22;;;;;;;6.93;4.10;;;;;;;8.00;100.00;100962.38;5209684;28;20240;-75
2021/11/17 12:28:15;;;;;;;7.88;4.00;;;;;;;8.01;100.00;100964.09;5213739;28;20502;-77
2021/11/17 12:31:08;;;;;;;6.03;4.03;;;;;;;7.93;100.00;100958.19;5204458;28;20484;-76
2021/11/17 12:34:14;;;;;;;7.50;4.43;;;;;;;7.90;100.00;100962.59;5201159;28;20083;-77
2021/11/17 12:37:10;;;;;;;6.90;4.22;;;;;;;7.82;100.00;100960.13;5179854;28;20072;-77
2021/11/17 12:39:53;;;;;;;7.18;4.35;;;;;;;7.76;100.00;100969.78;5207111;28;20036;-77
2021/11/17 12:42:31;;;;;;;7.72;4.32;;;;;;;7.82;100.00;100969.66;5210640;28;20498;-77
2021/11/17 12:45:33;;;;;;;9.50;5.22;;;;;;;7.82;100.00;100973.13;5205143;28;20037;-77
2021/11/17 12:48:08;;;;;;;10.32;5.70;;;;;;;7.78;100.00;100968.88;5209205;28;20030;-76
2021/11/17 12:50:52;;;;;;;13.27;5.67;;;;;;;7.82;100.00;100973.13;5208486;28;20483;-77
2021/11/17 12:53:33;;;;;;;11.18;5.88;;;;;;;7.82;100.00;100967.94;5210561;28;20642;-76
2021/11/17 12:56:25;;;;;;;10.98;5.70;;;;;;;7.86;100.00;100966.97;5206632;28;20510;-77
2021/11/17 12:59:09;;;;;;;9.57;5.45;;;;;;;7.84;100.00;100957.50;5210157;28;20320;-77
2021/11/17 13:01:45;;;;;;;9.98;5.30;;;;;;;7.84;100.00;100967.91;5214415;28;20022;-78
2021/11/17 13:04:24;;;;;;;11.60;5.18;;;;;;;7.75;100.00;100955.94;5208641;28;20131;-78
2021/11/17 13:06:58;;;;;;;7.63;4.65;;;;;;;7.94;100.00;100959.03;5213939;28;20112;-79
2021/11/17 13:09:41;;;;;;;10.02;5.35;;;;;;;7.90;100.00;100960.00;5210602;28;20450;-79
2021/11/17 13:12:19;;;;;;;8.00;4.80;;;;;;;7.91;100.00;100972.94;5214616;28;20043;-79
2021/11/17 13:14:53;;;;;;;8.65;4.65;;;;;;;7.88;100.00;100967.81;5215359;28;20502;-79
2021/11/17 13:17:33;;;;;;;9.23;4.95;;;;;;;7.85;100.00;100974.84;5210253;28;20064;-79
2021/11/17 13:20:12;;;;;;;9.18;5.18;;;;;;;7.70;100.00;100967.31;5207852;28;20087;-79
2021/11/17 13:23:08;;;;;;;9.57;5.30;;;;;;;7.73;100.00;100973.28;5215284;28;20032;-79
2021/11/17 13:25:53;;;;;;;8.00;4.95;;;;;;;7.72;100.00;100974.16;5203645;28;20037;-78
2021/11/17 13:28:39;;;;;;;10.52;5.63;;;;;;;7.70;100.00;100981.16;5211815;28;20049;-79
2021/11/17 13:31:21;;;;;;;;;;;;;;;7.66;100.00;100994.25;5210917;28;20236;-80
2021/11/17 13:34:07;;;;;;;11.20;5.95;;;;;;;7.67;100.00;100988.19;5211500;28;19916;-79
2021/11/17 13:36:37;;;;;;;;;;;;;;;7.70;100.00;100991.56;5212382;28;20108;-80
2021/11/17 13:39:09;;;;;;;8.93;5.23;;;;;;;7.61;100.00;100990.84;5209025;28;20008;-80
2021/11/17 13:41:43;;;;;;;10.57;6.03;;;;;;;7.51;100.00;100989.31;5208526;28;20083;-78
2021/11/17 13:44:17;;;;;;;10.77;6.40;;;;;;;7.53;100.00;101000.53;5210597;28;20171;-78
2021/11/17 13:47:08;;;;;;;9.88;5.60;;;;;;;7.55;100.00;101012.63;5209737;28;20490;-79
2021/11/17 13:49:43;;;;;;;10.05;5.72;;;;;;;7.59;100.00;101014.31;5208899;28;20500;-80
2021/11/17 13:52:18;;;;;;;11.57;6.53;;;;;;;7.54;100.00;101010.91;5211536;28;20033;-79
2021/11/17 13:54:49;;;;;;;12.27;6.78;;;;;;;7.46;100.00;101018.00;5209204;28;20033;-79
2021/11/17 13:57:20;;;;;;;13.48;7.00;;;;;;;7.55;100.00;101006.56;5212331;28;20029;-79
2021/11/17 13:59:56;;;;;;;11.60;6.38;;;;;;;7.52;100.00;101015.28;5214453;28;20051;-78
2021/11/17 14:02:27;;;;;;;11.35;6.47;;;;;;;7.61;100.00;101011.66;5205867;28;20438;-80
2021/11/17 14:04:57;;;;;;;11.60;5.93;;;;;;;7.61;100.00;101007.34;5208684;28;20028;-79
2021/11/17 14:07:28;;;;;;;12.27;6.15;;;;;;;7.51;100.00;101015.31;5209949;28;20240;-79
2021/11/17 14:09:59;;;;;;;11.65;6.55;;;;;;;7.57;100.00;101012.59;5206580;28;20521;-79
2021/11/17 14:12:29;;;;;;;10.65;6.18;;;;;;;7.59;100.00;101009.09;5210941;28;20037;-78
2021/11/17 14:15:01;;;;;;;15.07;7.32;;;;;;;7.58;100.00;101012.59;5215487;28;20040;-78
2021/11/17 14:17:31;;;;;;;16.35;7.90;;;;;;;7.53;100.00;101010.94;5209310;28;20308;-80
2021/11/17 14:20:05;;;;;;;14.07;6.82;;;;;;;7.52;100.00;101002.28;5212658;28;20072;-78
2021/11/17 14:22:35;;;;;;;13.25;6.65;;;;;;;7.57;100.00;101007.41;5211647;28;20056;-79
2021/11/17 14:25:08;;;;;;;10.32;6.28;;;;;;;7.52;100.00;101012.66;5212432;28;20434;-78
2021/11/17 14:27:40;;;;;;;14.05;6.82;;;;;;;7.51;100.00;101004.91;5212022;28;20674;-78
2021/11/17 14:30:15;;;;;;;12.98;7.05;;;;;;;7.49;100.00;100998.88;5211855;28;20394;-80
2021/11/17 14:32:47;;;;;;;;;;;;;;;7.63;100.00;100995.16;5207787;28;20025;-79
2021/11/17 14:35:18;;;;;;;12.43;6.75;;;;;;;7.70;100.00;100993.31;5214361;28;19959;-79
2021/11/17 14:37:49;;;;;;;15.50;7.30;;;;;;;7.63;100.00;101000.38;5208310;28;20036;-79
2021/11/17 14:40:19;;;;;;;13.40;6.72;;;;;;;7.72;100.00;100988.94;5216222;28;20032;-79
2021/11/17 14:42:50;;;;;;;12.15;6.60;;;;;;;7.79;100.00;100990.53;5202764;28;20708;-79
2021/11/17 14:45:24;;;;;;;13.13;7.03;;;;;;;7.90;100.00;100986.84;5215909;28;20375;-79
2021/11/17 14:47:54;;;;;;;11.25;6.55;;;;;;;7.72;100.00;100974.16;5210960;28;20104;-79
2021/11/17 14:50:25;;;;;;;11.98;6.65;;;;;;;7.74;100.00;100985.41;5209512;28;20687;-78